sensor_id;sensor_type;location;lat;lon;timestamp;P1;durP1;ratioP1;P2;durP2;ratioP2
23290;SDS011;11814;44.686;10.842;2023-04-25T00:01:07;3.55;;;1.95;;
23290;SDS011;11814;44.686;10.842;2023-04-25T00:03:34;3.60;;;1.88;;
23290;SDS011;11814;44.686;10.842;2023-04-25T00:06:00;4.20;;;1.85;;
23290;SDS011;11814;44.686;10.842;2023-04-25T00:08:30;2.47;;;1.77;;
23290;SDS011;11814;44.686;10.842;2023-04-25T00:10:56;2.83;;;1.73;;
23290;SDS011;11814;44.686;10.842;2023-04-25T00:13:22;4.40;;;1.90;;
23290;SDS011;11814;44.686;10.842;2023-04-25T00:15:50;4.55;;;1.95;;
23290;SDS011;11814;44.686;10.842;2023-04-25T00:18:18;4.28;;;1.90;;
23290;SDS011;11814;44.686;10.842;2023-04-25T00:20:44;3.20;;;2.35;;
23290;SDS011;11814;44.686;10.842;2023-04-25T00:23:15;5.25;;;2.40;;
23290;SDS011;11814;44.686;10.842;2023-04-25T00:25:46;4.95;;;2.28;;
23290;SDS011;11814;44.686;10.842;2023-04-25T00:28:13;4.15;;;2.20;;
23290;SDS011;11814;44.686;10.842;2023-04-25T00:30:40;8.27;;;2.30;;
23290;SDS011;11814;44.686;10.842;2023-04-25T00:33:08;6.93;;;2.40;;
23290;SDS011;11814;44.686;10.842;2023-04-25T00:35:34;3.42;;;2.17;;
23290;SDS011;11814;44.686;10.842;2023-04-25T00:38:00;5.63;;;2.40;;
23290;SDS011;11814;44.686;10.842;2023-04-25T00:40:26;5.10;;;2.40;;
23290;SDS011;11814;44.686;10.842;2023-04-25T00:42:53;7.13;;;2.45;;
23290;SDS011;11814;44.686;10.842;2023-04-25T00:45:19;4.70;;;2.45;;
23290;SDS011;11814;44.686;10.842;2023-04-25T00:47:45;5.63;;;2.42;;
23290;SDS011;11814;44.686;10.842;2023-04-25T00:50:12;4.80;;;2.55;;
23290;SDS011;11814;44.686;10.842;2023-04-25T00:52:39;4.72;;;2.50;;
23290;SDS011;11814;44.686;10.842;2023-04-25T00:55:08;7.22;;;2.67;;
23290;SDS011;11814;44.686;10.842;2023-04-25T00:57:35;5.82;;;2.90;;
23290;SDS011;11814;44.686;10.842;2023-04-25T01:00:01;4.90;;;2.65;;
23290;SDS011;11814;44.686;10.842;2023-04-25T01:02:28;4.32;;;2.53;;
23290;SDS011;11814;44.686;10.842;2023-04-25T01:04:55;8.38;;;2.95;;
23290;SDS011;11814;44.686;10.842;2023-04-25T01:07:20;4.80;;;2.20;;
23290;SDS011;11814;44.686;10.842;2023-04-25T01:09:46;4.60;;;2.72;;
23290;SDS011;11814;44.686;10.842;2023-04-25T01:12:12;5.57;;;2.80;;
23290;SDS011;11814;44.686;10.842;2023-04-25T01:14:38;5.07;;;2.80;;
23290;SDS011;11814;44.686;10.842;2023-04-25T01:17:03;3.05;;;2.13;;
23290;SDS011;11814;44.686;10.842;2023-04-25T01:19:29;4.53;;;2.33;;
23290;SDS011;11814;44.686;10.842;2023-04-25T01:21:55;4.97;;;3.30;;
23290;SDS011;11814;44.686;10.842;2023-04-25T01:24:21;6.40;;;2.30;;
23290;SDS011;11814;44.686;10.842;2023-04-25T01:26:47;4.63;;;2.72;;
23290;SDS011;11814;44.686;10.842;2023-04-25T01:29:18;7.15;;;3.30;;
23290;SDS011;11814;44.686;10.842;2023-04-25T01:31:44;4.85;;;2.97;;
23290;SDS011;11814;44.686;10.842;2023-04-25T01:34:12;5.95;;;2.70;;
23290;SDS011;11814;44.686;10.842;2023-04-25T01:36:38;3.97;;;2.70;;
23290;SDS011;11814;44.686;10.842;2023-04-25T01:39:05;4.05;;;2.60;;
23290;SDS011;11814;44.686;10.842;2023-04-25T01:41:31;5.93;;;2.72;;
23290;SDS011;11814;44.686;10.842;2023-04-25T01:43:57;2.95;;;2.30;;
23290;SDS011;11814;44.686;10.842;2023-04-25T01:46:23;5.03;;;3.03;;
23290;SDS011;11814;44.686;10.842;2023-04-25T01:48:48;2.90;;;2.50;;
23290;SDS011;11814;44.686;10.842;2023-04-25T01:51:14;3.50;;;2.22;;
23290;SDS011;11814;44.686;10.842;2023-04-25T01:53:40;2.55;;;2.05;;
23290;SDS011;11814;44.686;10.842;2023-04-25T01:56:07;6.40;;;2.75;;
23290;SDS011;11814;44.686;10.842;2023-04-25T01:58:33;5.38;;;2.58;;
23290;SDS011;11814;44.686;10.842;2023-04-25T02:00:59;4.10;;;2.55;;
23290;SDS011;11814;44.686;10.842;2023-04-25T02:03:25;6.00;;;2.88;;
23290;SDS011;11814;44.686;10.842;2023-04-25T02:05:50;5.22;;;2.67;;
23290;SDS011;11814;44.686;10.842;2023-04-25T02:08:16;5.93;;;3.00;;
23290;SDS011;11814;44.686;10.842;2023-04-25T02:10:43;5.00;;;2.92;;
23290;SDS011;11814;44.686;10.842;2023-04-25T02:13:09;8.07;;;3.00;;
23290;SDS011;11814;44.686;10.842;2023-04-25T02:15:35;4.82;;;2.97;;
23290;SDS011;11814;44.686;10.842;2023-04-25T02:18:00;6.15;;;3.00;;
23290;SDS011;11814;44.686;10.842;2023-04-25T02:20:27;5.85;;;2.60;;
23290;SDS011;11814;44.686;10.842;2023-04-25T02:22:54;5.43;;;3.10;;
23290;SDS011;11814;44.686;10.842;2023-04-25T02:25:20;5.35;;;2.78;;
23290;SDS011;11814;44.686;10.842;2023-04-25T02:27:46;4.35;;;2.80;;
23290;SDS011;11814;44.686;10.842;2023-04-25T02:30:12;5.60;;;3.10;;
23290;SDS011;11814;44.686;10.842;2023-04-25T02:32:38;4.35;;;2.65;;
23290;SDS011;11814;44.686;10.842;2023-04-25T02:35:05;3.30;;;2.75;;
23290;SDS011;11814;44.686;10.842;2023-04-25T02:37:35;3.35;;;2.55;;
23290;SDS011;11814;44.686;10.842;2023-04-25T02:40:01;3.42;;;2.40;;
23290;SDS011;11814;44.686;10.842;2023-04-25T02:42:30;6.03;;;2.85;;
23290;SDS011;11814;44.686;10.842;2023-04-25T02:44:56;5.18;;;2.60;;
23290;SDS011;11814;44.686;10.842;2023-04-25T02:47:21;4.25;;;3.10;;
23290;SDS011;11814;44.686;10.842;2023-04-25T02:49:47;5.72;;;3.60;;
23290;SDS011;11814;44.686;10.842;2023-04-25T02:52:13;6.70;;;2.90;;
23290;SDS011;11814;44.686;10.842;2023-04-25T02:54:39;4.63;;;3.17;;
23290;SDS011;11814;44.686;10.842;2023-04-25T02:57:06;4.90;;;2.80;;
23290;SDS011;11814;44.686;10.842;2023-04-25T02:59:32;4.28;;;2.55;;
23290;SDS011;11814;44.686;10.842;2023-04-25T03:01:58;3.58;;;2.55;;
23290;SDS011;11814;44.686;10.842;2023-04-25T03:04:24;3.00;;;2.70;;
23290;SDS011;11814;44.686;10.842;2023-04-25T03:06:50;3.88;;;2.70;;
23290;SDS011;11814;44.686;10.842;2023-04-25T03:09:16;4.30;;;2.72;;
23290;SDS011;11814;44.686;10.842;2023-04-25T03:11:43;4.80;;;3.00;;
23290;SDS011;11814;44.686;10.842;2023-04-25T03:14:10;4.55;;;2.80;;
23290;SDS011;11814;44.686;10.842;2023-04-25T03:16:36;4.07;;;3.15;;
23290;SDS011;11814;44.686;10.842;2023-04-25T03:19:02;3.30;;;2.70;;
23290;SDS011;11814;44.686;10.842;2023-04-25T03:21:28;5.00;;;3.05;;
23290;SDS011;11814;44.686;10.842;2023-04-25T03:23:56;2.45;;;2.25;;
23290;SDS011;11814;44.686;10.842;2023-04-25T03:26:23;3.20;;;2.67;;
23290;SDS011;11814;44.686;10.842;2023-04-25T03:28:48;3.90;;;2.75;;
23290;SDS011;11814;44.686;10.842;2023-04-25T03:31:14;2.60;;;2.40;;
23290;SDS011;11814;44.686;10.842;2023-04-25T03:33:40;3.42;;;2.22;;
23290;SDS011;11814;44.686;10.842;2023-04-25T03:36:06;6.88;;;2.50;;
23290;SDS011;11814;44.686;10.842;2023-04-25T03:38:32;3.53;;;2.83;;
23290;SDS011;11814;44.686;10.842;2023-04-25T03:40:58;3.75;;;3.33;;
23290;SDS011;11814;44.686;10.842;2023-04-25T03:43:23;4.25;;;3.05;;
23290;SDS011;11814;44.686;10.842;2023-04-25T03:45:49;4.15;;;2.47;;
23290;SDS011;11814;44.686;10.842;2023-04-25T03:48:15;3.83;;;2.67;;
23290;SDS011;11814;44.686;10.842;2023-04-25T03:50:41;3.45;;;2.53;;
23290;SDS011;11814;44.686;10.842;2023-04-25T03:53:07;3.40;;;2.60;;
23290;SDS011;11814;44.686;10.842;2023-04-25T03:55:33;6.13;;;3.28;;
23290;SDS011;11814;44.686;10.842;2023-04-25T03:57:58;4.00;;;2.90;;
23290;SDS011;11814;44.686;10.842;2023-04-25T04:00:24;4.57;;;3.35;;
23290;SDS011;11814;44.686;10.842;2023-04-25T04:02:50;7.85;;;3.70;;
23290;SDS011;11814;44.686;10.842;2023-04-25T04:05:16;4.15;;;3.42;;
23290;SDS011;11814;44.686;10.842;2023-04-25T04:07:42;6.50;;;3.78;;
23290;SDS011;11814;44.686;10.842;2023-04-25T04:10:08;5.13;;;3.50;;
23290;SDS011;11814;44.686;10.842;2023-04-25T04:12:35;4.97;;;3.58;;
23290;SDS011;11814;44.686;10.842;2023-04-25T04:15:02;8.55;;;4.10;;
23290;SDS011;11814;44.686;10.842;2023-04-25T04:17:31;7.05;;;4.47;;
23290;SDS011;11814;44.686;10.842;2023-04-25T04:19:58;6.32;;;3.90;;
23290;SDS011;11814;44.686;10.842;2023-04-25T04:22:25;7.30;;;4.35;;
23290;SDS011;11814;44.686;10.842;2023-04-25T04:24:50;5.57;;;4.38;;
23290;SDS011;11814;44.686;10.842;2023-04-25T04:27:19;7.38;;;4.50;;
23290;SDS011;11814;44.686;10.842;2023-04-25T04:29:46;8.85;;;4.30;;
23290;SDS011;11814;44.686;10.842;2023-04-25T04:32:13;6.95;;;4.45;;
23290;SDS011;11814;44.686;10.842;2023-04-25T04:34:39;6.75;;;4.43;;
23290;SDS011;11814;44.686;10.842;2023-04-25T04:37:06;6.50;;;4.55;;
23290;SDS011;11814;44.686;10.842;2023-04-25T04:39:32;7.30;;;5.13;;
23290;SDS011;11814;44.686;10.842;2023-04-25T04:41:58;8.65;;;5.72;;
23290;SDS011;11814;44.686;10.842;2023-04-25T04:44:26;8.82;;;5.35;;
23290;SDS011;11814;44.686;10.842;2023-04-25T04:46:53;7.82;;;5.63;;
23290;SDS011;11814;44.686;10.842;2023-04-25T04:49:19;7.18;;;5.30;;
23290;SDS011;11814;44.686;10.842;2023-04-25T04:51:45;5.00;;;3.70;;
23290;SDS011;11814;44.686;10.842;2023-04-25T04:54:12;6.38;;;4.28;;
23290;SDS011;11814;44.686;10.842;2023-04-25T04:56:38;5.63;;;4.32;;
23290;SDS011;11814;44.686;10.842;2023-04-25T04:59:03;7.03;;;4.38;;
23290;SDS011;11814;44.686;10.842;2023-04-25T05:01:29;6.50;;;4.78;;
23290;SDS011;11814;44.686;10.842;2023-04-25T05:03:55;6.10;;;5.03;;
23290;SDS011;11814;44.686;10.842;2023-04-25T05:06:25;6.85;;;4.82;;
23290;SDS011;11814;44.686;10.842;2023-04-25T05:08:54;7.05;;;5.05;;
23290;SDS011;11814;44.686;10.842;2023-04-25T05:11:21;7.60;;;4.97;;
23290;SDS011;11814;44.686;10.842;2023-04-25T05:13:47;5.85;;;4.55;;
23290;SDS011;11814;44.686;10.842;2023-04-25T05:16:13;9.38;;;4.85;;
23290;SDS011;11814;44.686;10.842;2023-04-25T05:18:39;10.55;;;5.18;;
23290;SDS011;11814;44.686;10.842;2023-04-25T05:21:05;8.38;;;4.85;;
23290;SDS011;11814;44.686;10.842;2023-04-25T05:23:32;9.60;;;5.13;;
23290;SDS011;11814;44.686;10.842;2023-04-25T05:25:58;10.93;;;5.43;;
23290;SDS011;11814;44.686;10.842;2023-04-25T05:28:24;7.53;;;5.57;;
23290;SDS011;11814;44.686;10.842;2023-04-25T05:30:50;7.82;;;5.07;;
23290;SDS011;11814;44.686;10.842;2023-04-25T05:33:16;6.38;;;5.15;;
23290;SDS011;11814;44.686;10.842;2023-04-25T05:35:42;12.35;;;5.85;;
23290;SDS011;11814;44.686;10.842;2023-04-25T05:38:08;6.78;;;5.65;;
23290;SDS011;11814;44.686;10.842;2023-04-25T05:40:33;8.00;;;5.78;;
23290;SDS011;11814;44.686;10.842;2023-04-25T05:42:59;11.80;;;6.22;;
23290;SDS011;11814;44.686;10.842;2023-04-25T05:45:25;7.97;;;5.35;;
23290;SDS011;11814;44.686;10.842;2023-04-25T05:47:51;8.52;;;6.30;;
23290;SDS011;11814;44.686;10.842;2023-04-25T05:50:17;11.73;;;5.97;;
23290;SDS011;11814;44.686;10.842;2023-04-25T05:52:42;7.50;;;5.18;;
23290;SDS011;11814;44.686;10.842;2023-04-25T05:55:08;8.60;;;4.55;;
23290;SDS011;11814;44.686;10.842;2023-04-25T05:57:34;8.90;;;5.18;;
23290;SDS011;11814;44.686;10.842;2023-04-25T06:00:00;7.75;;;5.05;;
23290;SDS011;11814;44.686;10.842;2023-04-25T06:02:26;7.88;;;4.70;;
23290;SDS011;11814;44.686;10.842;2023-04-25T06:04:52;7.50;;;4.57;;
23290;SDS011;11814;44.686;10.842;2023-04-25T06:07:18;7.57;;;4.70;;
23290;SDS011;11814;44.686;10.842;2023-04-25T06:09:45;7.65;;;4.25;;
23290;SDS011;11814;44.686;10.842;2023-04-25T06:12:11;8.35;;;3.33;;
23290;SDS011;11814;44.686;10.842;2023-04-25T06:14:36;5.63;;;3.60;;
23290;SDS011;11814;44.686;10.842;2023-04-25T06:17:03;5.13;;;4.00;;
23290;SDS011;11814;44.686;10.842;2023-04-25T06:19:33;6.03;;;3.80;;
23290;SDS011;11814;44.686;10.842;2023-04-25T06:22:02;8.48;;;3.83;;
23290;SDS011;11814;44.686;10.842;2023-04-25T06:24:28;5.60;;;3.83;;
23290;SDS011;11814;44.686;10.842;2023-04-25T06:26:53;7.53;;;4.10;;
23290;SDS011;11814;44.686;10.842;2023-04-25T06:29:20;5.45;;;3.70;;
23290;SDS011;11814;44.686;10.842;2023-04-25T06:31:46;8.98;;;3.78;;
23290;SDS011;11814;44.686;10.842;2023-04-25T06:34:11;7.78;;;3.78;;
23290;SDS011;11814;44.686;10.842;2023-04-25T06:36:37;6.38;;;3.92;;
23290;SDS011;11814;44.686;10.842;2023-04-25T06:39:03;9.05;;;4.28;;
23290;SDS011;11814;44.686;10.842;2023-04-25T06:41:28;12.70;;;4.72;;
23290;SDS011;11814;44.686;10.842;2023-04-25T06:43:54;6.90;;;3.80;;
23290;SDS011;11814;44.686;10.842;2023-04-25T06:46:20;6.68;;;3.67;;
23290;SDS011;11814;44.686;10.842;2023-04-25T06:48:46;5.88;;;4.38;;
23290;SDS011;11814;44.686;10.842;2023-04-25T06:51:11;7.57;;;5.10;;
23290;SDS011;11814;44.686;10.842;2023-04-25T06:53:38;9.00;;;4.88;;
23290;SDS011;11814;44.686;10.842;2023-04-25T06:56:04;5.30;;;4.32;;
23290;SDS011;11814;44.686;10.842;2023-04-25T06:58:31;7.60;;;5.55;;
23290;SDS011;11814;44.686;10.842;2023-04-25T07:00:57;11.25;;;5.32;;
23290;SDS011;11814;44.686;10.842;2023-04-25T07:03:22;9.93;;;5.10;;
23290;SDS011;11814;44.686;10.842;2023-04-25T07:05:49;8.07;;;5.25;;
23290;SDS011;11814;44.686;10.842;2023-04-25T07:08:15;7.75;;;5.25;;
23290;SDS011;11814;44.686;10.842;2023-04-25T07:10:41;9.18;;;5.50;;
23290;SDS011;11814;44.686;10.842;2023-04-25T07:13:07;11.70;;;5.57;;
23290;SDS011;11814;44.686;10.842;2023-04-25T07:15:33;10.63;;;5.80;;
23290;SDS011;11814;44.686;10.842;2023-04-25T07:17:59;7.40;;;5.50;;
23290;SDS011;11814;44.686;10.842;2023-04-25T07:20:25;10.05;;;5.68;;
23290;SDS011;11814;44.686;10.842;2023-04-25T07:22:52;11.73;;;5.78;;
23290;SDS011;11814;44.686;10.842;2023-04-25T07:25:18;7.40;;;5.43;;
23290;SDS011;11814;44.686;10.842;2023-04-25T07:27:44;9.02;;;6.25;;
23290;SDS011;11814;44.686;10.842;2023-04-25T07:30:10;10.90;;;6.20;;
23290;SDS011;11814;44.686;10.842;2023-04-25T07:32:37;11.15;;;6.68;;
23290;SDS011;11814;44.686;10.842;2023-04-25T07:35:04;9.50;;;6.10;;
23290;SDS011;11814;44.686;10.842;2023-04-25T07:37:31;13.07;;;6.22;;
23290;SDS011;11814;44.686;10.842;2023-04-25T07:39:58;10.40;;;6.32;;
23290;SDS011;11814;44.686;10.842;2023-04-25T07:42:23;16.58;;;6.70;;
23290;SDS011;11814;44.686;10.842;2023-04-25T07:44:49;8.65;;;6.40;;
23290;SDS011;11814;44.686;10.842;2023-04-25T07:47:16;6.88;;;5.00;;
23290;SDS011;11814;44.686;10.842;2023-04-25T07:49:44;2.65;;;1.77;;
23290;SDS011;11814;44.686;10.842;2023-04-25T07:52:10;4.70;;;0.82;;
23290;SDS011;11814;44.686;10.842;2023-04-25T07:54:36;1.42;;;0.90;;
23290;SDS011;11814;44.686;10.842;2023-04-25T07:57:02;1.35;;;0.60;;
23290;SDS011;11814;44.686;10.842;2023-04-25T07:59:28;1.55;;;0.80;;
23290;SDS011;11814;44.686;10.842;2023-04-25T08:01:54;1.90;;;0.50;;
23290;SDS011;11814;44.686;10.842;2023-04-25T08:04:20;0.80;;;0.50;;
23290;SDS011;11814;44.686;10.842;2023-04-25T08:06:45;2.47;;;0.77;;
23290;SDS011;11814;44.686;10.842;2023-04-25T08:09:11;1.88;;;0.70;;
23290;SDS011;11814;44.686;10.842;2023-04-25T08:11:37;1.02;;;0.60;;
23290;SDS011;11814;44.686;10.842;2023-04-25T08:14:03;2.90;;;0.50;;
23290;SDS011;11814;44.686;10.842;2023-04-25T08:16:30;1.70;;;0.70;;
23290;SDS011;11814;44.686;10.842;2023-04-25T08:18:56;2.25;;;0.88;;
23290;SDS011;11814;44.686;10.842;2023-04-25T08:21:21;2.03;;;0.50;;
23290;SDS011;11814;44.686;10.842;2023-04-25T08:23:47;1.70;;;0.50;;
23290;SDS011;11814;44.686;10.842;2023-04-25T08:26:13;1.38;;;0.40;;
23290;SDS011;11814;44.686;10.842;2023-04-25T08:28:38;1.80;;;0.30;;
23290;SDS011;11814;44.686;10.842;2023-04-25T08:31:04;1.88;;;0.40;;
23290;SDS011;11814;44.686;10.842;2023-04-25T08:33:30;1.85;;;0.40;;
23290;SDS011;11814;44.686;10.842;2023-04-25T08:35:57;0.57;;;0.40;;
23290;SDS011;11814;44.686;10.842;2023-04-25T08:38:22;2.00;;;0.30;;
23290;SDS011;11814;44.686;10.842;2023-04-25T08:40:49;1.42;;;0.47;;
23290;SDS011;11814;44.686;10.842;2023-04-25T08:43:19;12.00;;;5.38;;
23290;SDS011;11814;44.686;10.842;2023-04-25T08:45:45;0.98;;;0.50;;
23290;SDS011;11814;44.686;10.842;2023-04-25T08:48:12;1.10;;;0.40;;
23290;SDS011;11814;44.686;10.842;2023-04-25T08:50:58;1.95;;;0.50;;
23290;SDS011;11814;44.686;10.842;2023-04-25T08:53:31;1.13;;;0.30;;
23290;SDS011;11814;44.686;10.842;2023-04-25T08:55:58;0.77;;;0.35;;
23290;SDS011;11814;44.686;10.842;2023-04-25T08:58:26;2.60;;;0.32;;
23290;SDS011;11814;44.686;10.842;2023-04-25T09:00:53;0.38;;;0.20;;
23290;SDS011;11814;44.686;10.842;2023-04-25T09:03:19;2.60;;;0.40;;
23290;SDS011;11814;44.686;10.842;2023-04-25T09:05:44;3.40;;;2.25;;
23290;SDS011;11814;44.686;10.842;2023-04-25T09:08:10;5.47;;;2.88;;
23290;SDS011;11814;44.686;10.842;2023-04-25T09:10:36;5.05;;;2.40;;
23290;SDS011;11814;44.686;10.842;2023-04-25T09:13:09;7.47;;;3.25;;
23290;SDS011;11814;44.686;10.842;2023-04-25T09:15:50;2.33;;;1.55;;
23290;SDS011;11814;44.686;10.842;2023-04-25T09:18:30;3.17;;;0.68;;
23290;SDS011;11814;44.686;10.842;2023-04-25T09:20:58;7.25;;;4.40;;
23290;SDS011;11814;44.686;10.842;2023-04-25T09:23:41;10.55;;;2.85;;
23290;SDS011;11814;44.686;10.842;2023-04-25T09:26:18;5.20;;;1.85;;
23290;SDS011;11814;44.686;10.842;2023-04-25T09:28:45;7.32;;;3.75;;
23290;SDS011;11814;44.686;10.842;2023-04-25T09:31:20;4.13;;;1.13;;
23290;SDS011;11814;44.686;10.842;2023-04-25T09:33:47;2.15;;;0.70;;
23290;SDS011;11814;44.686;10.842;2023-04-25T09:36:13;4.15;;;1.00;;
23290;SDS011;11814;44.686;10.842;2023-04-25T09:38:42;0.60;;;0.30;;
23290;SDS011;11814;44.686;10.842;2023-04-25T09:41:09;1.25;;;0.40;;
23290;SDS011;11814;44.686;10.842;2023-04-25T09:43:36;1.63;;;0.45;;
23290;SDS011;11814;44.686;10.842;2023-04-25T09:46:02;1.88;;;0.43;;
23290;SDS011;11814;44.686;10.842;2023-04-25T09:48:32;1.63;;;0.88;;
23290;SDS011;11814;44.686;10.842;2023-04-25T09:53:39;1.60;;;0.88;;
23290;SDS011;11814;44.686;10.842;2023-04-25T09:56:07;1.63;;;1.35;;
23290;SDS011;11814;44.686;10.842;2023-04-25T09:58:34;0.95;;;0.40;;
23290;SDS011;11814;44.686;10.842;2023-04-25T10:01:02;1.02;;;0.60;;
23290;SDS011;11814;44.686;10.842;2023-04-25T10:03:30;1.85;;;0.50;;
23290;SDS011;11814;44.686;10.842;2023-04-25T10:06:01;2.05;;;0.40;;
23290;SDS011;11814;44.686;10.842;2023-04-25T10:08:33;6.88;;;4.65;;
23290;SDS011;11814;44.686;10.842;2023-04-25T10:11:05;2.53;;;0.47;;
23290;SDS011;11814;44.686;10.842;2023-04-25T10:13:32;0.60;;;0.40;;
23290;SDS011;11814;44.686;10.842;2023-04-25T10:15:59;0.20;;;0.20;;
23290;SDS011;11814;44.686;10.842;2023-04-25T10:18:27;0.73;;;0.20;;
23290;SDS011;11814;44.686;10.842;2023-04-25T10:20:58;0.80;;;0.45;;
23290;SDS011;11814;44.686;10.842;2023-04-25T10:23:25;1.65;;;1.10;;
23290;SDS011;11814;44.686;10.842;2023-04-25T10:25:52;4.63;;;2.38;;
23290;SDS011;11814;44.686;10.842;2023-04-25T10:28:19;0.95;;;0.70;;
23290;SDS011;11814;44.686;10.842;2023-04-25T10:31:01;0.47;;;0.40;;
23290;SDS011;11814;44.686;10.842;2023-04-25T10:33:33;2.28;;;0.60;;
23290;SDS011;11814;44.686;10.842;2023-04-25T10:36:12;2.10;;;0.30;;
23290;SDS011;11814;44.686;10.842;2023-04-25T10:38:48;1.05;;;0.30;;
23290;SDS011;11814;44.686;10.842;2023-04-25T10:41:19;5.97;;;0.38;;
23290;SDS011;11814;44.686;10.842;2023-04-25T10:43:47;1.17;;;0.50;;
23290;SDS011;11814;44.686;10.842;2023-04-25T10:46:15;0.35;;;0.20;;
23290;SDS011;11814;44.686;10.842;2023-04-25T10:48:51;1.05;;;0.28;;
23290;SDS011;11814;44.686;10.842;2023-04-25T10:51:22;1.17;;;0.30;;
23290;SDS011;11814;44.686;10.842;2023-04-25T10:56:25;1.42;;;0.40;;
23290;SDS011;11814;44.686;10.842;2023-04-25T10:58:52;1.35;;;1.13;;
23290;SDS011;11814;44.686;10.842;2023-04-25T11:01:35;2.10;;;1.10;;
23290;SDS011;11814;44.686;10.842;2023-04-25T11:04:02;0.43;;;0.32;;
23290;SDS011;11814;44.686;10.842;2023-04-25T11:09:20;2.60;;;1.27;;
23290;SDS011;11814;44.686;10.842;2023-04-25T11:11:56;3.55;;;2.65;;
23290;SDS011;11814;44.686;10.842;2023-04-25T11:14:23;3.67;;;1.98;;
23290;SDS011;11814;44.686;10.842;2023-04-25T11:16:53;1.48;;;0.60;;
23290;SDS011;11814;44.686;10.842;2023-04-25T11:19:20;28.13;;;17.45;;
23290;SDS011;11814;44.686;10.842;2023-04-25T11:21:46;3.08;;;2.10;;
23290;SDS011;11814;44.686;10.842;2023-04-25T11:24:12;1.25;;;0.75;;
23290;SDS011;11814;44.686;10.842;2023-04-25T11:26:38;1.08;;;0.63;;
23290;SDS011;11814;44.686;10.842;2023-04-25T11:29:06;0.77;;;0.32;;
23290;SDS011;11814;44.686;10.842;2023-04-25T11:31:32;5.05;;;2.65;;
23290;SDS011;11814;44.686;10.842;2023-04-25T11:33:58;1.25;;;0.43;;
23290;SDS011;11814;44.686;10.842;2023-04-25T11:36:25;1.17;;;0.40;;
23290;SDS011;11814;44.686;10.842;2023-04-25T11:38:52;2.33;;;0.50;;
23290;SDS011;11814;44.686;10.842;2023-04-25T11:41:19;4.60;;;0.68;;
23290;SDS011;11814;44.686;10.842;2023-04-25T11:43:46;0.70;;;0.60;;
23290;SDS011;11814;44.686;10.842;2023-04-25T11:46:13;3.08;;;0.65;;
23290;SDS011;11814;44.686;10.842;2023-04-25T11:48:41;1.92;;;0.35;;
23290;SDS011;11814;44.686;10.842;2023-04-25T11:51:07;1.33;;;0.40;;
23290;SDS011;11814;44.686;10.842;2023-04-25T11:53:34;1.13;;;0.43;;
23290;SDS011;11814;44.686;10.842;2023-04-25T11:56:00;2.35;;;0.50;;
23290;SDS011;11814;44.686;10.842;2023-04-25T11:58:27;1.42;;;0.35;;
23290;SDS011;11814;44.686;10.842;2023-04-25T12:00:53;2.17;;;0.30;;
23290;SDS011;11814;44.686;10.842;2023-04-25T12:03:19;0.60;;;0.30;;
23290;SDS011;11814;44.686;10.842;2023-04-25T12:05:45;1.35;;;0.35;;
23290;SDS011;11814;44.686;10.842;2023-04-25T12:08:11;3.88;;;0.40;;
23290;SDS011;11814;44.686;10.842;2023-04-25T12:10:39;7.75;;;4.32;;
23290;SDS011;11814;44.686;10.842;2023-04-25T12:13:25;2.72;;;1.70;;
23290;SDS011;11814;44.686;10.842;2023-04-25T12:15:55;0.45;;;0.40;;
23290;SDS011;11814;44.686;10.842;2023-04-25T12:18:25;1.77;;;0.45;;
23290;SDS011;11814;44.686;10.842;2023-04-25T12:20:52;1.10;;;0.38;;
23290;SDS011;11814;44.686;10.842;2023-04-25T12:23:24;2.45;;;0.30;;
23290;SDS011;11814;44.686;10.842;2023-04-25T12:25:52;1.67;;;0.50;;
23290;SDS011;11814;44.686;10.842;2023-04-25T12:28:19;2.05;;;0.40;;
23290;SDS011;11814;44.686;10.842;2023-04-25T12:31:07;0.50;;;0.30;;
23290;SDS011;11814;44.686;10.842;2023-04-25T12:33:33;0.40;;;0.30;;
23290;SDS011;11814;44.686;10.842;2023-04-25T12:36:01;0.73;;;0.30;;
23290;SDS011;11814;44.686;10.842;2023-04-25T12:38:37;0.73;;;0.50;;
23290;SDS011;11814;44.686;10.842;2023-04-25T12:41:05;0.60;;;0.38;;
23290;SDS011;11814;44.686;10.842;2023-04-25T12:43:31;0.50;;;0.43;;
23290;SDS011;11814;44.686;10.842;2023-04-25T12:45:57;2.42;;;0.60;;
23290;SDS011;11814;44.686;10.842;2023-04-25T12:48:24;1.58;;;1.00;;
23290;SDS011;11814;44.686;10.842;2023-04-25T12:50:50;2.35;;;0.25;;
23290;SDS011;11814;44.686;10.842;2023-04-25T12:53:20;2.60;;;0.30;;
23290;SDS011;11814;44.686;10.842;2023-04-25T12:55:47;1.08;;;0.20;;
23290;SDS011;11814;44.686;10.842;2023-04-25T12:58:14;1.40;;;0.35;;
23290;SDS011;11814;44.686;10.842;2023-04-25T13:00:40;0.40;;;0.30;;
23290;SDS011;11814;44.686;10.842;2023-04-25T13:03:07;4.47;;;0.45;;
23290;SDS011;11814;44.686;10.842;2023-04-25T13:05:33;2.17;;;0.60;;
23290;SDS011;11814;44.686;10.842;2023-04-25T13:07:58;1.33;;;0.40;;
23290;SDS011;11814;44.686;10.842;2023-04-25T13:10:24;0.55;;;0.38;;
23290;SDS011;11814;44.686;10.842;2023-04-25T13:12:50;1.48;;;0.40;;
23290;SDS011;11814;44.686;10.842;2023-04-25T13:15:16;1.05;;;0.30;;
23290;SDS011;11814;44.686;10.842;2023-04-25T13:17:42;0.85;;;0.32;;
23290;SDS011;11814;44.686;10.842;2023-04-25T13:20:08;0.73;;;0.47;;
23290;SDS011;11814;44.686;10.842;2023-04-25T13:22:35;1.23;;;0.50;;
23290;SDS011;11814;44.686;10.842;2023-04-25T13:25:02;0.73;;;0.45;;
23290;SDS011;11814;44.686;10.842;2023-04-25T13:27:29;0.57;;;0.47;;
23290;SDS011;11814;44.686;10.842;2023-04-25T13:29:55;1.25;;;0.35;;
23290;SDS011;11814;44.686;10.842;2023-04-25T13:32:21;4.13;;;0.38;;
23290;SDS011;11814;44.686;10.842;2023-04-25T13:34:46;2.35;;;0.43;;
23290;SDS011;11814;44.686;10.842;2023-04-25T13:37:12;3.55;;;0.50;;
23290;SDS011;11814;44.686;10.842;2023-04-25T13:39:38;2.72;;;0.70;;
23290;SDS011;11814;44.686;10.842;2023-04-25T13:42:04;2.55;;;0.50;;
23290;SDS011;11814;44.686;10.842;2023-04-25T13:44:29;1.25;;;0.50;;
23290;SDS011;11814;44.686;10.842;2023-04-25T13:46:55;0.77;;;0.50;;
23290;SDS011;11814;44.686;10.842;2023-04-25T13:49:21;2.47;;;0.60;;
23290;SDS011;11814;44.686;10.842;2023-04-25T13:51:47;0.75;;;0.45;;
23290;SDS011;11814;44.686;10.842;2023-04-25T13:54:13;0.77;;;0.50;;
23290;SDS011;11814;44.686;10.842;2023-04-25T13:56:39;1.45;;;0.70;;
23290;SDS011;11814;44.686;10.842;2023-04-25T13:59:07;4.72;;;0.77;;
23290;SDS011;11814;44.686;10.842;2023-04-25T14:01:32;1.08;;;0.40;;
23290;SDS011;11814;44.686;10.842;2023-04-25T14:04:00;0.73;;;0.50;;
23290;SDS011;11814;44.686;10.842;2023-04-25T14:06:29;1.10;;;0.50;;
23290;SDS011;11814;44.686;10.842;2023-04-25T14:08:56;0.63;;;0.40;;
23290;SDS011;11814;44.686;10.842;2023-04-25T14:11:22;1.00;;;0.40;;
23290;SDS011;11814;44.686;10.842;2023-04-25T14:13:47;1.65;;;0.52;;
23290;SDS011;11814;44.686;10.842;2023-04-25T14:16:14;1.00;;;0.40;;
23290;SDS011;11814;44.686;10.842;2023-04-25T14:18:40;0.50;;;0.40;;
23290;SDS011;11814;44.686;10.842;2023-04-25T14:21:06;4.38;;;0.88;;
23290;SDS011;11814;44.686;10.842;2023-04-25T14:23:32;1.60;;;0.45;;
23290;SDS011;11814;44.686;10.842;2023-04-25T14:25:57;0.90;;;0.50;;
23290;SDS011;11814;44.686;10.842;2023-04-25T14:28:23;1.00;;;0.50;;
23290;SDS011;11814;44.686;10.842;2023-04-25T14:30:49;1.27;;;0.80;;
23290;SDS011;11814;44.686;10.842;2023-04-25T14:33:15;1.95;;;0.90;;
23290;SDS011;11814;44.686;10.842;2023-04-25T14:35:40;1.00;;;0.70;;
23290;SDS011;11814;44.686;10.842;2023-04-25T14:38:06;1.00;;;0.70;;
23290;SDS011;11814;44.686;10.842;2023-04-25T14:40:32;1.80;;;0.77;;